createdAt,value
2022-11-25T00:00:33.690Z,100587.19
2022-11-25T00:03:00.207Z,100601.03
2022-11-25T00:05:28.369Z,100591.28
2022-11-25T00:07:54.906Z,100583.13
2022-11-25T00:10:21.482Z,100576.53
2022-11-25T00:12:48.034Z,100581.59
2022-11-25T00:15:14.557Z,100584.97
2022-11-25T00:17:43.773Z,100577.06
2022-11-25T00:20:10.471Z,100579.75
2022-11-25T00:22:36.971Z,100580.44
2022-11-25T00:25:03.614Z,100577.16
2022-11-25T00:27:30.192Z,100582.50
2022-11-25T00:29:56.622Z,100575.44
2022-11-25T00:32:23.370Z,100578.75
2022-11-25T00:34:49.808Z,100584.00
2022-11-25T00:37:16.336Z,100582.31
2022-11-25T00:39:42.775Z,100583.66
2022-11-25T00:42:29.076Z,100574.09
2022-11-25T00:44:55.527Z,100582.81
2022-11-25T00:47:22.785Z,100580.97
2022-11-25T00:49:52.391Z,100577.63
2022-11-25T00:52:24.335Z,100588.09
2022-11-25T00:54:51.618Z,100577.78
2022-11-25T00:57:20.604Z,100587.91
2022-11-25T00:59:47.500Z,100588.75
2022-11-25T01:02:16.084Z,100582.47
2022-11-25T01:04:42.963Z,100584.09
2022-11-25T01:07:09.624Z,100580.41
2022-11-25T01:09:36.244Z,100590.56
2022-11-25T01:12:02.756Z,100588.59
2022-11-25T01:14:29.272Z,100579.94
2022-11-25T01:16:55.769Z,100582.38
2022-11-25T01:19:22.593Z,100577.63
2022-11-25T01:21:49.061Z,100581.22
2022-11-25T01:24:16.263Z,100574.56
2022-11-25T01:26:44.070Z,100583.66
2022-11-25T01:29:16.455Z,100583.44
2022-11-25T01:31:43.710Z,100585.38
2022-11-25T01:34:23.037Z,100584.25
2022-11-25T01:36:49.919Z,100572.78
2022-11-25T01:39:24.475Z,100575.84
2022-11-25T01:41:55.179Z,100576.44
2022-11-25T01:44:25.725Z,100570.56
2022-11-25T01:47:01.766Z,100558.97
2022-11-25T01:49:33.830Z,100565.31
2022-11-25T01:52:12.365Z,100559.81
2022-11-25T01:54:47.623Z,100547.66
2022-11-25T01:57:21.810Z,100552.66
2022-11-25T01:59:53.441Z,100556.75
2022-11-25T02:02:21.031Z,100554.88
2022-11-25T02:04:48.660Z,100552.16
2022-11-25T02:07:22.179Z,100548.25
2022-11-25T02:09:49.984Z,100545.16
2022-11-25T02:12:18.575Z,100548.00
2022-11-25T02:14:46.334Z,100547.53
2022-11-25T02:17:12.829Z,100555.44
2022-11-25T02:19:51.026Z,100545.13
2022-11-25T02:22:25.828Z,100548.41
2022-11-25T02:24:57.860Z,100540.88
2022-11-25T02:27:24.308Z,100545.00
2022-11-25T02:29:52.208Z,100535.88
2022-11-25T02:32:22.315Z,100540.78
2022-11-25T02:34:49.751Z,100542.97
2022-11-25T02:37:18.712Z,100541.69
2022-11-25T02:39:47.567Z,100544.22
2022-11-25T02:42:15.107Z,100540.78
2022-11-25T02:44:41.557Z,100548.16
2022-11-25T02:47:08.035Z,100543.41
2022-11-25T02:49:34.446Z,100549.28
2022-11-25T02:52:00.892Z,100540.78
2022-11-25T02:54:27.337Z,100544.16
2022-11-25T02:56:53.771Z,100546.66
2022-11-25T02:59:20.258Z,100550.47
2022-11-25T03:01:47.047Z,100553.19
2022-11-25T03:04:13.732Z,100550.22
2022-11-25T03:06:40.293Z,100545.34
2022-11-25T03:09:06.743Z,100549.09
2022-11-25T03:11:51.720Z,100547.47
2022-11-25T03:14:18.269Z,100550.50
2022-11-25T03:16:44.822Z,100545.13
2022-11-25T03:19:11.292Z,100548.13
2022-11-25T03:21:37.719Z,100530.56
2022-11-25T03:24:04.416Z,100536.03
2022-11-25T03:26:31.320Z,100538.22
2022-11-25T03:28:57.744Z,100538.47
2022-11-25T03:31:24.171Z,100535.25
2022-11-25T03:33:50.637Z,100541.13
2022-11-25T03:36:17.090Z,100534.75
2022-11-25T03:38:43.735Z,100529.75
2022-11-25T03:41:10.154Z,100535.00
2022-11-25T03:43:36.628Z,100526.78
2022-11-25T03:46:03.127Z,100530.41
2022-11-25T03:48:29.634Z,100527.28
2022-11-25T03:50:56.189Z,100530.75
2022-11-25T03:53:22.664Z,100528.22
2022-11-25T03:55:49.106Z,100542.91
2022-11-25T03:58:15.563Z,100552.81
2022-11-25T04:00:41.979Z,100547.25
2022-11-25T04:03:08.555Z,100552.59
2022-11-25T04:05:35.054Z,100547.91
2022-11-25T04:08:01.573Z,100556.34
2022-11-25T04:10:28.065Z,100552.81
2022-11-25T04:12:54.807Z,100550.53
2022-11-25T04:15:21.671Z,100545.47
2022-11-25T04:17:48.165Z,100544.50
2022-11-25T04:20:15.279Z,100544.88
2022-11-25T04:22:42.014Z,100536.78
2022-11-25T04:25:09.529Z,100532.13
2022-11-25T04:27:36.115Z,100535.19
2022-11-25T04:30:02.554Z,100544.78
2022-11-25T04:32:28.988Z,100533.28
2022-11-25T04:34:55.573Z,100531.50
2022-11-25T04:37:22.053Z,100542.47
2022-11-25T04:39:48.565Z,100541.69
2022-11-25T04:42:34.271Z,100537.19
2022-11-25T04:45:22.054Z,100545.41
2022-11-25T04:47:48.722Z,100541.06
2022-11-25T04:50:18.790Z,100537.59
2022-11-25T04:52:45.260Z,100536.41
2022-11-25T04:55:11.833Z,100549.13
2022-11-25T04:57:38.271Z,100541.16
2022-11-25T05:00:05.728Z,100535.38
2022-11-25T05:02:32.355Z,100540.50
2022-11-25T05:04:58.995Z,100534.94
2022-11-25T05:07:27.758Z,100534.09
2022-11-25T05:09:54.621Z,100521.59
2022-11-25T05:12:24.236Z,100528.41
2022-11-25T05:14:50.683Z,100527.28
2022-11-25T05:17:23.200Z,100528.69
2022-11-25T05:19:50.907Z,100537.06
2022-11-25T05:22:19.712Z,100534.41
2022-11-25T05:24:46.652Z,100538.47
2022-11-25T05:27:13.715Z,100539.50
2022-11-25T05:29:40.277Z,100534.91
2022-11-25T05:32:07.338Z,100541.00
2022-11-25T05:34:34.185Z,100543.66
2022-11-25T05:37:00.960Z,100539.56
2022-11-25T05:39:27.435Z,100540.16
2022-11-25T05:41:53.881Z,100533.38
2022-11-25T05:44:23.066Z,100537.22
2022-11-25T05:46:49.935Z,100539.09
2022-11-25T05:49:17.571Z,100538.22
2022-11-25T05:51:44.317Z,100529.75
2022-11-25T05:54:10.786Z,100535.72
2022-11-25T05:56:37.621Z,100538.00
2022-11-25T05:59:04.871Z,100544.97
2022-11-25T06:01:33.129Z,100537.16
2022-11-25T06:04:00.990Z,100532.06
2022-11-25T06:06:27.961Z,100529.81
2022-11-25T06:08:54.496Z,100538.22
2022-11-25T06:11:21.188Z,100532.09
2022-11-25T06:13:47.606Z,100529.19
2022-11-25T06:16:17.414Z,100527.66
2022-11-25T06:18:44.053Z,100527.50
2022-11-25T06:21:11.331Z,100522.88
2022-11-25T06:23:38.836Z,100523.19
2022-11-25T06:26:05.339Z,100534.34
2022-11-25T06:28:31.826Z,100536.28
2022-11-25T06:31:04.582Z,100536.59
2022-11-25T06:33:31.788Z,100530.78
2022-11-25T06:35:58.234Z,100532.44
2022-11-25T06:38:24.703Z,100537.03
2022-11-25T06:40:52.375Z,100534.75
2022-11-25T06:43:20.504Z,100541.63
2022-11-25T06:45:46.940Z,100541.56
2022-11-25T06:48:13.389Z,100542.91
2022-11-25T06:50:39.794Z,100550.50
2022-11-25T06:53:06.309Z,100546.69
2022-11-25T06:55:33.089Z,100537.56
2022-11-25T06:58:20.605Z,100555.63
2022-11-25T07:00:45.921Z,100552.06
2022-11-25T07:03:12.430Z,100551.16
2022-11-25T07:05:38.885Z,100544.56
2022-11-25T07:08:05.301Z,100546.00
2022-11-25T07:10:34.076Z,100547.41
2022-11-25T07:13:00.539Z,100549.63
2022-11-25T07:15:26.967Z,100549.81
2022-11-25T07:17:53.378Z,100548.09
2022-11-25T07:20:19.821Z,100540.53
2022-11-25T07:22:46.255Z,100551.06
2022-11-25T07:25:12.684Z,100554.97
2022-11-25T07:27:39.125Z,100560.28
2022-11-25T07:32:52.794Z,100556.75
2022-11-25T07:35:19.199Z,100571.50
2022-11-25T07:37:45.891Z,100576.56
2022-11-25T07:40:12.890Z,100582.94
2022-11-25T07:42:39.752Z,100584.53
2022-11-25T07:45:06.709Z,100577.28
2022-11-25T07:47:35.942Z,100577.91
2022-11-25T07:50:02.451Z,100584.69
2022-11-25T07:52:28.920Z,100589.28
2022-11-25T07:54:55.348Z,100587.09
2022-11-25T07:57:21.842Z,100592.28
2022-11-25T07:59:48.272Z,100584.44
2022-11-25T08:02:14.820Z,100591.16
2022-11-25T08:04:41.305Z,100587.72
2022-11-25T08:07:07.753Z,100590.22
2022-11-25T08:09:34.444Z,100597.22
2022-11-25T08:12:01.149Z,100591.25
2022-11-25T08:14:27.652Z,100589.91
2022-11-25T08:16:54.124Z,100597.59
2022-11-25T08:19:20.636Z,100609.13
2022-11-25T08:21:49.987Z,100613.41
2022-11-25T08:24:20.814Z,100618.16
2022-11-25T08:26:48.211Z,100605.94
2022-11-25T08:29:16.542Z,100613.25
2022-11-25T08:31:43.448Z,100619.66
2022-11-25T08:34:18.131Z,100625.56
2022-11-25T08:36:48.315Z,100636.09
2022-11-25T08:39:51.363Z,100625.69
2022-11-25T08:42:05.558Z,100637.09
2022-11-25T08:44:32.011Z,100638.66
2022-11-25T08:46:58.575Z,100628.78
2022-11-25T08:49:26.829Z,100640.94
2022-11-25T08:51:53.377Z,100631.00
2022-11-25T08:54:19.885Z,100628.25
2022-11-25T08:56:46.313Z,100622.59
2022-11-25T08:59:13.379Z,100622.97
2022-11-25T09:01:40.000Z,100629.19
2022-11-25T09:04:06.532Z,100626.09
2022-11-25T09:06:32.971Z,100628.31
2022-11-25T09:09:01.675Z,100633.72
2022-11-25T09:11:28.679Z,100633.72
2022-11-25T09:13:55.356Z,100632.28
2022-11-25T09:16:21.948Z,100630.03
2022-11-25T09:18:54.053Z,100635.03
2022-11-25T09:21:22.571Z,100641.44
2022-11-25T09:23:51.001Z,100644.22
2022-11-25T09:26:26.825Z,100647.28
2022-11-25T09:28:53.665Z,100650.50
2022-11-25T09:31:20.473Z,100651.00
2022-11-25T09:33:47.391Z,100652.63
2022-11-25T09:36:16.129Z,100646.19
2022-11-25T09:38:45.420Z,100648.34
2022-11-25T09:45:51.346Z,100656.53
2022-11-25T09:48:38.299Z,100648.19
2022-11-25T09:51:10.847Z,100647.16
2022-11-25T09:53:54.268Z,100658.13
2022-11-25T09:56:29.922Z,100651.53
2022-11-25T09:59:05.048Z,100652.91
2022-11-25T10:01:34.360Z,100645.91
2022-11-25T10:04:11.363Z,100644.66
2022-11-25T10:06:49.494Z,100649.81
2022-11-25T10:09:25.255Z,100651.19
2022-11-25T10:11:58.370Z,100653.72
2022-11-25T10:14:47.039Z,100645.75
2022-11-25T10:17:43.257Z,100659.63
2022-11-25T10:20:17.905Z,100663.78
2022-11-25T10:22:47.694Z,100661.13
2022-11-25T10:25:28.144Z,100651.97
2022-11-25T10:28:06.322Z,100655.84
2022-11-25T10:30:35.676Z,100655.59
2022-11-25T10:33:18.411Z,100666.94
2022-11-25T10:36:00.284Z,100664.75
2022-11-25T10:38:49.941Z,100660.44
2022-11-25T10:41:20.859Z,100658.16
2022-11-25T10:43:48.120Z,100662.69
2022-11-25T10:47:11.116Z,100659.63
2022-11-25T10:49:36.026Z,100656.94
2022-11-25T10:52:07.674Z,100651.25
2022-11-25T10:54:34.379Z,100658.94
2022-11-25T10:57:03.841Z,100652.69
2022-11-25T10:59:34.524Z,100651.84
2022-11-25T11:02:16.089Z,100664.59
2022-11-25T11:05:04.076Z,100664.91
2022-11-25T11:07:33.817Z,100657.41
2022-11-25T11:10:21.044Z,100666.88
2022-11-25T11:12:57.036Z,100663.63
2022-11-25T11:15:30.961Z,100665.50
2022-11-25T11:17:59.703Z,100661.50
2022-11-25T11:20:29.345Z,100664.84
2022-11-25T11:23:09.423Z,100665.03
2022-11-25T11:25:41.354Z,100662.28
2022-11-25T11:28:40.949Z,100664.16
2022-11-25T11:31:10.070Z,100673.13
2022-11-25T11:33:48.867Z,100670.16
2022-11-25T11:36:15.261Z,100666.91
2022-11-25T11:39:08.620Z,100669.63
2022-11-25T11:41:58.285Z,100674.50
2022-11-25T11:44:46.094Z,100663.44
2022-11-25T11:47:30.227Z,100667.25
2022-11-25T11:50:12.867Z,100669.44
2022-11-25T11:52:48.253Z,100668.50
2022-11-25T11:56:26.707Z,100671.34
2022-11-25T11:59:05.187Z,100669.78
2022-11-25T12:01:34.705Z,100677.00
2022-11-25T12:04:14.883Z,100675.94
2022-11-25T12:06:45.642Z,100675.69
2022-11-25T12:09:22.886Z,100678.00
2022-11-25T12:11:57.796Z,100682.69
2022-11-25T12:14:45.381Z,100678.31
2022-11-25T12:17:29.511Z,100683.81
2022-11-25T12:20:06.303Z,100685.34
2022-11-25T12:22:37.989Z,100677.59
2022-11-25T12:25:30.511Z,100682.84
2022-11-25T12:28:17.975Z,100687.75
2022-11-25T12:31:14.818Z,100687.72
2022-11-25T12:33:57.909Z,100695.09
2022-11-25T12:36:34.401Z,100695.97
2022-11-25T12:39:21.021Z,100700.72
2022-11-25T12:41:54.104Z,100696.97
2022-11-25T12:44:49.712Z,100699.13
2022-11-25T12:47:16.168Z,100708.25
2022-11-25T12:49:49.140Z,100705.38
2022-11-25T12:52:33.713Z,100704.75
2022-11-25T12:55:20.330Z,100711.00
2022-11-25T12:58:06.290Z,100710.84
2022-11-25T13:00:51.131Z,100720.59
2022-11-25T13:03:23.586Z,100721.84
2022-11-25T13:05:49.997Z,100722.63
2022-11-25T13:08:37.835Z,100727.28
2022-11-25T13:11:13.902Z,100730.78
2022-11-25T13:13:53.542Z,100724.88
2022-11-25T13:16:22.187Z,100737.09
2022-11-25T13:18:50.400Z,100728.63
2022-11-25T13:21:18.395Z,100741.34
2022-11-25T13:23:57.168Z,100731.69
2022-11-25T13:26:29.799Z,100738.94
2022-11-25T13:28:56.552Z,100743.03
2022-11-25T13:31:32.141Z,100740.88
2022-11-25T13:34:29.088Z,100737.38
2022-11-25T13:36:57.760Z,100742.22
2022-11-25T13:39:24.110Z,100743.16
2022-11-25T13:42:03.706Z,100748.91
2022-11-25T13:44:34.977Z,100745.91
2022-11-25T13:47:41.153Z,100743.69
2022-11-25T13:50:21.879Z,100753.59
2022-11-25T13:53:02.929Z,100759.91
2022-11-25T13:55:32.947Z,100756.84
2022-11-25T13:58:18.544Z,100753.50
2022-11-25T14:01:03.950Z,100761.66
2022-11-25T14:03:30.407Z,100767.34
2022-11-25T14:06:27.445Z,100772.75
2022-11-25T14:09:03.501Z,100772.06
2022-11-25T14:11:40.546Z,100783.06
2022-11-25T14:14:28.558Z,100778.66
2022-11-25T14:17:18.889Z,100775.16
2022-11-25T14:20:07.494Z,100785.78
2022-11-25T14:23:10.697Z,100788.69
2022-11-25T14:25:50.383Z,100788.69
2022-11-25T14:28:36.042Z,100785.53
2022-11-25T14:31:11.049Z,100795.84
2022-11-25T14:33:58.055Z,100795.59
2022-11-25T14:36:33.717Z,100799.97
2022-11-25T14:39:06.171Z,100801.84
2022-11-25T14:41:37.731Z,100809.06
2022-11-25T14:44:14.253Z,100810.06
2022-11-25T14:46:58.266Z,100813.66
2022-11-25T14:49:59.464Z,100820.50
2022-11-25T14:52:34.503Z,100817.69
2022-11-25T14:55:03.449Z,100817.06
2022-11-25T14:57:34.387Z,100824.63
2022-11-25T15:00:10.356Z,100822.56
2022-11-25T15:02:40.761Z,100827.28
2022-11-25T15:05:10.360Z,100831.53
2022-11-25T15:07:42.008Z,100833.06
2022-11-25T15:10:34.056Z,100841.59
2022-11-25T15:13:07.666Z,100844.59
2022-11-25T15:15:34.308Z,100845.94
2022-11-25T15:18:05.545Z,100848.16
2022-11-25T15:20:34.515Z,100851.47
2022-11-25T15:23:02.225Z,100861.84
2022-11-25T15:25:28.733Z,100857.22
2022-11-25T15:27:55.201Z,100869.19
2022-11-25T15:30:29.275Z,100864.97
2022-11-25T15:32:56.564Z,100871.84
2022-11-25T15:35:26.169Z,100868.25
2022-11-25T15:37:55.880Z,100868.16
2022-11-25T15:40:31.522Z,100882.25
2022-11-25T15:43:04.217Z,100880.56
2022-11-25T15:45:42.725Z,100884.03
2022-11-25T15:48:35.329Z,100892.97
2022-11-25T15:51:25.828Z,100893.16
2022-11-25T15:54:01.862Z,100889.69
2022-11-25T15:56:28.770Z,100892.31
2022-11-25T15:58:58.764Z,100894.41
2022-11-25T16:01:29.286Z,100893.63
2022-11-25T16:04:21.023Z,100890.31
2022-11-25T16:06:59.417Z,100895.53
2022-11-25T16:09:28.571Z,100893.81
2022-11-25T16:12:05.328Z,100903.91
2022-11-25T16:14:35.787Z,100905.59
2022-11-25T16:17:05.716Z,100914.50
2022-11-25T16:19:38.476Z,100911.53
2022-11-25T16:22:05.770Z,100915.88
2022-11-25T16:24:41.070Z,100927.00
2022-11-25T16:27:16.416Z,100926.53
2022-11-25T16:29:48.904Z,100929.03
2022-11-25T16:32:27.921Z,100933.84
2022-11-25T16:35:10.166Z,100933.06
2022-11-25T16:37:36.581Z,100934.69
2022-11-25T16:40:03.538Z,100937.28
2022-11-25T16:42:29.983Z,100944.13
2022-11-25T16:44:56.461Z,100946.53
2022-11-25T16:47:23.862Z,100951.16
2022-11-25T16:49:50.397Z,100955.19
2022-11-25T16:52:16.969Z,100958.94
2022-11-25T16:54:43.445Z,100962.00
2022-11-25T16:57:20.892Z,100956.78
2022-11-25T16:59:54.400Z,100966.72
2022-11-25T17:02:22.957Z,100973.88
2022-11-25T17:04:49.563Z,100977.19
2022-11-25T17:07:32.868Z,100965.03
2022-11-25T17:10:02.738Z,100971.88
2022-11-25T17:12:32.372Z,100976.63
2022-11-25T17:15:00.684Z,100977.75
2022-11-25T17:17:28.516Z,100984.34
2022-11-25T17:19:55.101Z,100989.22
2022-11-25T17:22:24.067Z,100980.00
2022-11-25T17:24:50.655Z,100990.06
2022-11-25T17:27:24.401Z,100994.25
2022-11-25T17:29:51.715Z,100999.63
2022-11-25T17:32:18.417Z,101001.19
2022-11-25T17:34:44.915Z,101001.97
2022-11-25T17:37:31.026Z,101014.22
2022-11-25T17:39:57.479Z,101018.69
2022-11-25T17:42:29.520Z,101020.84
2022-11-25T17:44:56.659Z,101026.47
2022-11-25T17:47:23.212Z,101026.47
2022-11-25T17:49:49.760Z,101024.88
2022-11-25T17:52:16.306Z,101030.50
2022-11-25T17:54:43.078Z,101036.97
2022-11-25T17:57:17.400Z,101032.94
2022-11-25T17:59:44.047Z,101031.13
2022-11-25T18:02:18.417Z,101044.69
2022-11-25T18:04:45.001Z,101046.50
2022-11-25T18:07:11.485Z,101044.47
2022-11-25T18:09:37.903Z,101052.66
2022-11-25T18:12:10.128Z,101041.94
2022-11-25T18:14:38.613Z,101041.63
2022-11-25T18:17:07.724Z,101048.00
2022-11-25T18:19:34.804Z,101046.13
2022-11-25T18:22:12.269Z,101047.75
2022-11-25T18:24:38.889Z,101054.13
2022-11-25T18:27:06.789Z,101064.78
2022-11-25T18:29:33.600Z,101072.88
2022-11-25T18:32:00.135Z,101061.31
2022-11-25T18:34:26.765Z,101072.88
2022-11-25T18:36:53.601Z,101066.81
2022-11-25T18:39:20.451Z,101074.47
2022-11-25T18:41:48.064Z,101077.88
2022-11-25T18:44:26.706Z,101070.09
2022-11-25T18:46:53.856Z,101081.22
2022-11-25T18:49:21.436Z,101086.78
2022-11-25T18:51:48.063Z,101079.13
2022-11-25T18:54:14.596Z,101081.63
2022-11-25T18:56:41.699Z,101088.94
2022-11-25T18:59:16.541Z,101090.66
2022-11-25T19:01:48.265Z,101093.09
2022-11-25T19:04:16.658Z,101094.88
2022-11-25T19:06:44.151Z,101108.75
2022-11-25T19:09:11.200Z,101108.44
2022-11-25T19:11:49.507Z,101116.94
2022-11-25T19:14:29.857Z,101123.19
2022-11-25T19:17:08.939Z,101115.06
2022-11-25T19:19:37.792Z,101123.88
2022-11-25T19:22:11.000Z,101130.75
2022-11-25T19:24:37.707Z,101128.69
2022-11-25T19:27:04.741Z,101137.44
2022-11-25T19:29:41.764Z,101139.72
2022-11-25T19:32:23.468Z,101149.88
2022-11-25T19:35:03.597Z,101157.28
2022-11-25T19:37:30.672Z,101157.47
2022-11-25T19:39:57.690Z,101157.41
2022-11-25T19:42:28.244Z,101161.13
2022-11-25T19:44:54.689Z,101158.31
2022-11-25T19:47:25.309Z,101173.75
2022-11-25T19:49:56.091Z,101179.47
2022-11-25T19:52:35.761Z,101179.28
2022-11-25T19:55:16.571Z,101185.34
2022-11-25T19:57:43.422Z,101183.97
2022-11-25T20:00:11.597Z,101188.63
2022-11-25T20:02:38.914Z,101199.03
2022-11-25T20:05:07.516Z,101192.78
2022-11-25T20:07:34.503Z,101197.53
2022-11-25T20:10:18.704Z,101210.03
2022-11-25T20:12:45.419Z,101214.59
2022-11-25T20:15:12.850Z,101206.34
2022-11-25T20:17:42.629Z,101215.69
2022-11-25T20:20:24.016Z,101218.13
2022-11-25T20:23:02.586Z,101220.22
2022-11-25T20:25:29.490Z,101222.44
2022-11-25T20:27:56.246Z,101230.66
2022-11-25T20:30:25.437Z,101234.72
2022-11-25T20:32:53.503Z,101231.47
2022-11-25T20:35:20.907Z,101235.47
2022-11-25T20:37:51.320Z,101232.03
2022-11-25T20:40:21.817Z,101243.00
2022-11-25T20:42:49.993Z,101248.94
2022-11-25T20:45:19.350Z,101247.97
2022-11-25T20:47:48.958Z,101254.75
2022-11-25T20:50:15.677Z,101259.38
2022-11-25T20:52:42.697Z,101260.38
2022-11-25T20:55:23.547Z,101263.72
2022-11-25T20:57:54.497Z,101265.94
2022-11-25T21:00:26.644Z,101270.31
2022-11-25T21:02:55.564Z,101275.84
2022-11-25T21:05:22.154Z,101275.84
2022-11-25T21:07:49.943Z,101274.56
2022-11-25T21:10:16.312Z,101270.56
2022-11-25T21:12:42.797Z,101283.53
2022-11-25T21:15:17.871Z,101280.50
2022-11-25T21:17:45.220Z,101292.03
2022-11-25T21:20:12.844Z,101296.56
2022-11-25T21:22:41.826Z,101295.47
2022-11-25T21:25:15.206Z,101294.78
2022-11-25T21:27:41.839Z,101305.00
2022-11-25T21:30:18.352Z,101311.53
2022-11-25T21:32:45.568Z,101307.41
2022-11-25T21:35:13.226Z,101308.06
2022-11-25T21:37:42.891Z,101322.72
2022-11-25T21:40:27.181Z,101322.34
2022-11-25T21:42:53.710Z,101317.31
2022-11-25T21:45:20.191Z,101327.19
2022-11-25T21:47:46.649Z,101324.50
2022-11-25T21:50:18.363Z,101331.25
2022-11-25T21:52:44.791Z,101334.31
2022-11-25T21:55:12.921Z,101338.88
2022-11-25T21:57:40.182Z,101337.28
2022-11-25T22:00:19.788Z,101352.19
2022-11-25T22:02:46.268Z,101349.75
2022-11-25T22:05:18.034Z,101361.59
2022-11-25T22:07:44.989Z,101359.41
2022-11-25T22:10:13.295Z,101349.94
2022-11-25T22:12:41.762Z,101368.50
2022-11-25T22:15:17.052Z,101361.13
2022-11-25T22:17:43.845Z,101360.94
2022-11-25T22:20:34.587Z,101364.38
2022-11-25T22:23:01.714Z,101367.84
2022-11-25T22:25:31.332Z,101365.09
2022-11-25T22:27:57.963Z,101370.25
2022-11-25T22:30:24.616Z,101367.84
2022-11-25T22:32:59.986Z,101373.09
2022-11-25T22:35:26.543Z,101382.75
2022-11-25T22:37:55.378Z,101382.38
2022-11-25T22:40:23.482Z,101387.44
2022-11-25T22:42:51.968Z,101393.53
2022-11-25T22:45:32.974Z,101396.97
2022-11-25T22:48:03.180Z,101400.03
2022-11-25T22:50:32.842Z,101400.81
2022-11-25T22:53:00.620Z,101395.84
2022-11-25T22:55:32.023Z,101398.81
2022-11-25T22:58:00.674Z,101401.88
2022-11-25T23:00:31.088Z,101406.97
2022-11-25T23:02:59.835Z,101413.31
2022-11-25T23:05:32.963Z,101413.31
2022-11-25T23:08:00.823Z,101410.88
2022-11-25T23:10:29.867Z,101413.69
2022-11-25T23:12:56.662Z,101422.88
2022-11-25T23:15:24.439Z,101420.03
2022-11-25T23:17:56.929Z,101424.91
2022-11-25T23:20:33.219Z,101419.41
2022-11-25T23:23:12.258Z,101432.22
2022-11-25T23:25:38.720Z,101437.41
2022-11-25T23:28:05.223Z,101437.22
2022-11-25T23:30:31.888Z,101433.47
2022-11-25T23:32:58.667Z,101433.41
2022-11-25T23:35:35.868Z,101445.75
2022-11-25T23:38:05.805Z,101447.66
2022-11-25T23:40:32.604Z,101451.38
2022-11-25T23:42:59.592Z,101447.25
2022-11-25T23:45:27.326Z,101452.56
2022-11-25T23:47:55.501Z,101450.03
2022-11-25T23:50:29.668Z,101455.16
2022-11-25T23:53:05.747Z,101464.75
2022-11-25T23:55:35.905Z,101469.56
2022-11-25T23:58:06.071Z,101470.78
